createdAt,value
2022-08-03T00:00:26.589Z,19.60
2022-08-03T00:02:53.797Z,19.60
2022-08-03T00:05:20.849Z,19.50
2022-08-03T00:07:48.484Z,19.50
2022-08-03T00:10:17.790Z,19.50
2022-08-03T00:12:44.605Z,19.50
2022-08-03T00:15:16.561Z,19.40
2022-08-03T00:17:53.704Z,19.30
2022-08-03T00:20:21.125Z,19.30
2022-08-03T00:22:47.952Z,19.30
2022-08-03T00:25:14.736Z,19.30
2022-08-03T00:27:42.893Z,19.30
2022-08-03T00:30:10.357Z,19.20
2022-08-03T00:32:37.132Z,19.20
2022-08-03T00:35:09.145Z,19.20
2022-08-03T00:37:40.763Z,19.20
2022-08-03T00:40:10.790Z,19.20
2022-08-03T00:42:48.813Z,19.10
2022-08-03T00:45:15.557Z,19.10
2022-08-03T00:47:42.378Z,19.10
2022-08-03T00:50:09.692Z,19.00
2022-08-03T00:52:36.618Z,19.00
2022-08-03T00:55:04.211Z,19.00
2022-08-03T00:57:32.599Z,19.00
2022-08-03T01:00:00.870Z,18.90
2022-08-03T01:02:28.113Z,18.90
2022-08-03T01:04:55.202Z,18.80
2022-08-03T01:07:31.455Z,18.80
2022-08-03T01:10:03.259Z,18.70
2022-08-03T01:12:38.333Z,18.70
2022-08-03T01:15:13.274Z,18.70
2022-08-03T01:17:49.483Z,18.70
2022-08-03T01:20:18.425Z,18.60
2022-08-03T01:23:08.850Z,18.60
2022-08-03T01:25:51.920Z,18.60
2022-08-03T01:28:38.862Z,18.60
2022-08-03T01:31:08.709Z,18.60
2022-08-03T01:33:38.984Z,18.50
2022-08-03T01:36:09.772Z,18.60
2022-08-03T01:38:42.810Z,18.40
2022-08-03T01:41:13.845Z,18.40
2022-08-03T01:44:28.606Z,18.40
2022-08-03T01:46:33.494Z,18.30
2022-08-03T01:49:09.404Z,18.30
2022-08-03T01:51:58.375Z,18.30
2022-08-03T01:54:25.882Z,18.20
2022-08-03T01:56:54.743Z,18.20
2022-08-03T01:59:22.851Z,18.10
2022-08-03T02:02:31.805Z,18.10
2022-08-03T02:04:39.353Z,18.10
2022-08-03T02:07:07.981Z,18.10
2022-08-03T02:09:37.882Z,18.10
2022-08-03T02:12:08.888Z,18.10
2022-08-03T02:14:36.721Z,18.10
2022-08-03T02:17:06.724Z,18.00
2022-08-03T02:19:35.875Z,18.00
2022-08-03T02:22:03.460Z,17.90
2022-08-03T02:24:31.890Z,17.90
2022-08-03T02:26:59.799Z,17.90
2022-08-03T02:29:40.264Z,17.90
2022-08-03T02:32:11.679Z,17.90
2022-08-03T02:34:42.039Z,17.80
2022-08-03T02:37:10.175Z,17.80
2022-08-03T02:39:39.221Z,17.80
2022-08-03T02:42:08.611Z,17.80
2022-08-03T02:44:37.508Z,17.70
2022-08-03T02:47:07.936Z,17.80
2022-08-03T02:49:49.847Z,17.70
2022-08-03T02:52:19.774Z,17.60
2022-08-03T02:54:49.066Z,17.60
2022-08-03T02:57:16.919Z,17.60
2022-08-03T02:59:44.684Z,17.60
2022-08-03T03:02:12.304Z,17.50
2022-08-03T03:05:51.131Z,17.50
2022-08-03T03:07:30.050Z,17.40
2022-08-03T03:10:02.772Z,17.50
2022-08-03T03:12:31.041Z,17.50
2022-08-03T03:14:58.043Z,17.50
2022-08-03T03:17:25.897Z,17.50
2022-08-03T03:19:54.989Z,17.50
2022-08-03T03:22:22.443Z,17.40
2022-08-03T03:24:51.729Z,17.40
2022-08-03T03:27:18.806Z,17.20
2022-08-03T03:29:46.084Z,17.20
2022-08-03T03:32:13.221Z,17.20
2022-08-03T03:34:40.371Z,17.20
2022-08-03T03:37:12.420Z,17.20
2022-08-03T03:39:39.255Z,17.10
2022-08-03T03:42:06.250Z,17.10
2022-08-03T03:44:33.093Z,17.10
2022-08-03T03:47:00.247Z,17.20
2022-08-03T03:49:27.480Z,17.20
2022-08-03T03:51:55.024Z,17.20
2022-08-03T03:54:25.496Z,17.20
2022-08-03T03:56:56.019Z,17.20
2022-08-03T03:59:22.824Z,17.20
2022-08-03T04:01:58.542Z,17.20
2022-08-03T04:04:44.496Z,17.20
2022-08-03T04:20:32.514Z,17.20
2022-08-03T04:23:00.611Z,17.30
2022-08-03T04:25:30.946Z,17.20
2022-08-03T04:28:29.664Z,17.20
2022-08-03T04:30:50.634Z,17.20
2022-08-03T04:33:18.693Z,17.20
2022-08-03T04:36:01.982Z,17.20
2022-08-03T04:38:31.583Z,17.20
2022-08-03T04:40:59.760Z,17.30
2022-08-03T04:43:27.758Z,17.30
2022-08-03T04:45:54.929Z,17.30
2022-08-03T04:48:21.934Z,17.40
2022-08-03T04:50:50.290Z,17.30
2022-08-03T04:53:18.120Z,17.30
2022-08-03T04:55:46.791Z,17.40
2022-08-03T04:58:13.646Z,17.40
2022-08-03T05:00:40.576Z,17.40
2022-08-03T05:03:20.155Z,17.40
2022-08-03T05:05:52.603Z,17.50
2022-08-03T05:08:27.672Z,17.50
2022-08-03T05:10:55.136Z,17.60
2022-08-03T05:13:21.922Z,17.60
2022-08-03T05:15:49.306Z,17.70
2022-08-03T05:18:16.657Z,17.80
2022-08-03T05:20:43.435Z,17.80
2022-08-03T05:23:11.481Z,17.90
2022-08-03T05:25:38.499Z,18.00
2022-08-03T05:28:06.272Z,18.10
2022-08-03T05:30:33.891Z,18.20
2022-08-03T05:33:02.521Z,18.20
2022-08-03T05:36:01.183Z,18.30
2022-08-03T05:38:24.092Z,18.40
2022-08-03T05:40:57.262Z,18.40
2022-08-03T05:43:24.639Z,18.50
2022-08-03T05:46:12.363Z,18.60
2022-08-03T05:48:38.313Z,18.70
2022-08-03T05:51:07.457Z,18.80
2022-08-03T05:53:35.720Z,18.90
2022-08-03T05:56:13.337Z,19.00
2022-08-03T05:58:41.702Z,19.10
2022-08-03T06:01:08.559Z,19.30
2022-08-03T06:03:35.413Z,19.30
2022-08-03T06:06:02.172Z,19.40
2022-08-03T06:08:29.186Z,19.50
2022-08-03T06:10:57.274Z,19.70
2022-08-03T06:13:24.031Z,19.80
2022-08-03T06:15:50.817Z,20.00
2022-08-03T06:18:17.761Z,20.10
2022-08-03T06:20:44.589Z,20.20
2022-08-03T06:25:44.764Z,20.40
2022-08-03T06:28:35.297Z,20.50
2022-08-03T06:31:01.108Z,20.60
2022-08-03T06:34:30.543Z,20.70
2022-08-03T06:36:15.105Z,20.80
2022-08-03T06:38:41.858Z,20.90
2022-08-03T06:41:08.755Z,21.00
2022-08-03T06:43:38.020Z,21.10
2022-08-03T06:46:24.450Z,21.20
2022-08-03T06:48:51.204Z,21.20
2022-08-03T06:51:18.033Z,21.30
2022-08-03T06:53:44.838Z,21.40
2022-08-03T06:56:11.660Z,21.40
2022-08-03T06:58:39.803Z,21.50
2022-08-03T07:01:06.647Z,21.60
2022-08-03T07:03:33.546Z,21.70
2022-08-03T07:06:00.728Z,21.90
2022-08-03T07:08:34.316Z,22.00
2022-08-03T07:11:01.559Z,22.20
2022-08-03T07:15:56.962Z,22.40
2022-08-03T07:18:29.586Z,22.50
2022-08-03T07:20:56.953Z,22.60
2022-08-03T07:23:23.713Z,22.70
2022-08-03T07:25:50.791Z,22.90
2022-08-03T07:28:17.678Z,22.90
2022-08-03T07:30:44.466Z,23.00
2022-08-03T07:33:12.656Z,23.10
2022-08-03T07:35:39.698Z,23.10
2022-08-03T07:38:06.459Z,23.10
2022-08-03T07:40:34.677Z,23.20
2022-08-03T07:43:03.185Z,23.30
2022-08-03T07:45:30.556Z,23.30
2022-08-03T07:47:57.414Z,23.40
2022-08-03T07:50:25.889Z,23.40
2022-08-03T07:52:53.977Z,23.50
2022-08-03T07:55:23.221Z,23.60
2022-08-03T07:58:00.228Z,23.70
2022-08-03T08:00:27.152Z,23.80
2022-08-03T08:02:53.910Z,24.70
2022-08-03T08:05:20.852Z,24.10
2022-08-03T08:07:51.379Z,23.90
2022-08-03T08:10:18.824Z,24.00
2022-08-03T08:12:46.090Z,24.20
2022-08-03T08:15:13.314Z,24.20
2022-08-03T08:17:47.916Z,24.30
2022-08-03T08:20:21.742Z,24.50
2022-08-03T08:22:58.169Z,24.60
2022-08-03T08:25:25.378Z,24.60
2022-08-03T08:28:30.387Z,24.80
2022-08-03T08:30:39.355Z,24.80
2022-08-03T08:33:06.133Z,24.80
2022-08-03T08:35:32.900Z,24.90
2022-08-03T08:38:05.525Z,25.00
2022-08-03T08:40:32.617Z,25.10
2022-08-03T08:42:59.402Z,25.10
2022-08-03T08:45:26.753Z,25.20
2022-08-03T08:48:01.693Z,25.30
2022-08-03T08:50:31.694Z,25.40
2022-08-03T08:53:03.487Z,25.50
2022-08-03T08:55:58.041Z,25.50
2022-08-03T08:58:21.455Z,25.70
2022-08-03T09:00:48.497Z,25.70
2022-08-03T09:03:29.262Z,25.80
2022-08-03T09:05:56.702Z,27.90
2022-08-03T09:08:24.936Z,25.90
2022-08-03T09:10:51.899Z,25.90
2022-08-03T09:15:59.074Z,26.10
2022-08-03T09:18:30.573Z,26.20
2022-08-03T09:21:30.051Z,26.40
2022-08-03T09:24:04.275Z,26.50
2022-08-03T09:26:33.366Z,26.60
2022-08-03T09:29:05.925Z,26.60
2022-08-03T09:31:39.582Z,26.90
2022-08-03T09:34:12.128Z,26.80
2022-08-03T09:36:41.546Z,26.80
2022-08-03T09:39:11.445Z,26.90
2022-08-03T09:41:40.055Z,27.00
2022-08-03T09:44:07.095Z,27.00
2022-08-03T09:46:50.033Z,27.80
2022-08-03T09:49:17.945Z,27.10
2022-08-03T09:52:39.352Z,27.20
2022-08-03T09:54:34.176Z,27.30
2022-08-03T09:57:02.065Z,27.30
2022-08-03T09:59:30.706Z,27.40
2022-08-03T10:01:59.728Z,27.50
2022-08-03T10:04:27.247Z,27.60
2022-08-03T10:07:06.145Z,27.50
2022-08-03T10:09:34.345Z,27.70
2022-08-03T10:12:09.249Z,27.80
2022-08-03T10:14:38.241Z,27.80
2022-08-03T10:17:05.433Z,27.90
2022-08-03T10:19:32.887Z,28.00
2022-08-03T10:22:03.890Z,28.00
2022-08-03T10:24:34.067Z,28.10
2022-08-03T10:27:05.662Z,28.10
2022-08-03T10:29:37.359Z,28.10
2022-08-03T10:32:09.301Z,28.10
2022-08-03T10:34:44.276Z,28.20
2022-08-03T10:37:13.318Z,28.30
2022-08-03T10:39:53.197Z,28.20
2022-08-03T10:42:24.434Z,28.20
2022-08-03T10:45:00.622Z,28.30
2022-08-03T10:47:27.658Z,28.40
2022-08-03T10:49:54.606Z,28.30
2022-08-03T10:52:33.895Z,28.60
2022-08-03T10:55:52.132Z,28.80
2022-08-03T10:58:53.385Z,28.90
2022-08-03T11:02:00.382Z,28.90
2022-08-03T11:04:29.582Z,29.10
2022-08-03T11:07:15.516Z,29.20
2022-08-03T11:09:43.767Z,29.30
2022-08-03T11:12:30.623Z,29.40
2022-08-03T11:15:01.956Z,29.20
2022-08-03T11:17:28.796Z,29.20
2022-08-03T11:22:25.559Z,29.20
2022-08-03T11:24:59.616Z,29.20
2022-08-03T11:27:28.359Z,29.00
2022-08-03T11:29:56.958Z,29.00
2022-08-03T11:32:58.658Z,29.00
2022-08-03T11:35:27.446Z,29.10
2022-08-03T11:38:11.326Z,29.20
2022-08-03T11:40:41.186Z,29.30
2022-08-03T11:43:09.418Z,29.30
2022-08-03T11:45:37.319Z,31.40
2022-08-03T11:48:16.774Z,29.60
2022-08-03T11:50:45.193Z,29.40
2022-08-03T11:53:18.130Z,29.40
2022-08-03T11:55:48.793Z,29.50
2022-08-03T11:59:10.748Z,29.60
2022-08-03T12:01:05.109Z,29.60
2022-08-03T12:03:35.025Z,29.70
2022-08-03T12:06:03.023Z,29.70
2022-08-03T12:08:33.012Z,29.80
2022-08-03T12:11:02.262Z,29.80
2022-08-03T12:14:44.395Z,29.90
2022-08-03T12:16:26.052Z,29.80
2022-08-03T12:18:57.555Z,29.80
2022-08-03T12:21:24.936Z,29.90
2022-08-03T12:23:56.007Z,29.90
2022-08-03T12:26:22.769Z,30.10
2022-08-03T12:28:50.162Z,30.00
2022-08-03T12:31:17.128Z,30.00
2022-08-03T12:33:59.786Z,30.00
2022-08-03T12:36:27.856Z,30.10
2022-08-03T12:38:57.090Z,30.10
2022-08-03T12:41:29.651Z,30.00
2022-08-03T12:43:56.570Z,29.90
2022-08-03T12:46:29.140Z,30.10
2022-08-03T12:49:08.468Z,30.20
2022-08-03T12:51:37.376Z,30.30
2022-08-03T12:54:05.332Z,30.30
2022-08-03T12:56:32.231Z,30.40
2022-08-03T12:58:58.989Z,30.30
2022-08-03T13:01:27.769Z,30.30
2022-08-03T13:03:54.713Z,30.40
2022-08-03T13:06:24.934Z,30.50
2022-08-03T13:09:03.578Z,30.50
2022-08-03T13:11:57.884Z,30.50
2022-08-03T13:14:19.681Z,30.50
2022-08-03T13:16:47.437Z,30.50
2022-08-03T13:19:15.451Z,30.50
2022-08-03T13:21:53.813Z,30.30
2022-08-03T13:24:31.855Z,30.30
2022-08-03T13:29:26.080Z,30.40
2022-08-03T13:31:53.042Z,30.50
2022-08-03T13:34:23.654Z,30.60
2022-08-03T13:37:08.572Z,30.70
2022-08-03T13:39:58.471Z,31.00
2022-08-03T13:42:26.243Z,31.00
2022-08-03T13:44:53.104Z,31.30
2022-08-03T13:47:20.779Z,31.50
2022-08-03T13:49:59.848Z,31.50
2022-08-03T13:52:31.904Z,31.90
2022-08-03T13:54:59.009Z,32.10
2022-08-03T13:58:05.336Z,32.70
2022-08-03T14:00:16.314Z,32.70
2022-08-03T14:03:02.698Z,32.90
2022-08-03T14:05:32.219Z,32.70
2022-08-03T14:08:05.697Z,32.70
2022-08-03T14:10:34.105Z,32.70
2022-08-03T14:13:01.004Z,34.20
2022-08-03T14:15:28.620Z,32.30
2022-08-03T14:17:56.154Z,32.20
2022-08-03T14:20:37.236Z,32.20
2022-08-03T14:23:07.488Z,32.10
2022-08-03T14:25:43.518Z,32.10
2022-08-03T14:28:17.838Z,31.90
2022-08-03T14:30:44.944Z,32.10
2022-08-03T14:33:11.707Z,32.00
2022-08-03T14:35:38.581Z,32.00
2022-08-03T14:38:06.709Z,32.20
2022-08-03T14:40:33.558Z,32.30
2022-08-03T14:43:00.322Z,32.50
2022-08-03T14:45:27.071Z,33.10
2022-08-03T14:50:10.339Z,32.80
2022-08-03T14:50:45.426Z,33.10
2022-08-03T14:53:17.513Z,33.00
2022-08-03T14:55:50.244Z,32.90
2022-08-03T14:58:20.681Z,33.00
2022-08-03T15:00:48.550Z,33.20
2022-08-03T15:03:16.972Z,33.30
2022-08-03T15:05:44.205Z,33.50
2022-08-03T15:08:10.978Z,33.50
2022-08-03T15:10:44.062Z,33.10
2022-08-03T15:13:12.022Z,32.90
2022-08-03T15:15:38.806Z,32.70
2022-08-03T15:18:05.736Z,32.50
2022-08-03T15:20:43.716Z,32.00
2022-08-03T15:23:11.110Z,31.80
2022-08-03T15:26:29.611Z,31.80
2022-08-03T15:28:27.127Z,31.80
2022-08-03T15:30:53.918Z,31.90
2022-08-03T15:33:20.750Z,31.90
2022-08-03T15:35:47.918Z,31.80
2022-08-03T15:38:15.014Z,31.90
2022-08-03T15:40:43.158Z,32.00
2022-08-03T15:45:37.337Z,32.10
2022-08-03T15:48:04.931Z,31.90
2022-08-03T15:50:31.672Z,31.60
2022-08-03T15:52:58.465Z,31.60
2022-08-03T15:55:25.326Z,31.60
2022-08-03T15:59:11.881Z,31.60
2022-08-03T16:00:41.344Z,31.60
2022-08-03T16:03:08.225Z,31.60
2022-08-03T16:05:35.162Z,31.70
2022-08-03T16:08:03.855Z,31.60
2022-08-03T16:10:32.201Z,31.60
2022-08-03T16:13:00.584Z,32.90
2022-08-03T16:15:27.676Z,31.60
2022-08-03T16:17:55.106Z,31.60
2022-08-03T16:20:31.307Z,31.40
2022-08-03T16:23:06.973Z,31.40
2022-08-03T16:25:39.547Z,31.40
2022-08-03T16:28:13.615Z,32.20
2022-08-03T16:30:42.137Z,31.40
2022-08-03T16:33:09.038Z,31.50
2022-08-03T16:35:35.863Z,31.50
2022-08-03T16:38:06.479Z,31.30
2022-08-03T16:40:36.333Z,32.50
2022-08-03T16:43:18.302Z,31.90
2022-08-03T16:45:46.462Z,31.10
2022-08-03T16:48:13.305Z,31.10
2022-08-03T16:50:40.137Z,31.30
2022-08-03T16:53:08.869Z,31.30
2022-08-03T16:55:52.066Z,31.30
2022-08-03T16:58:34.837Z,32.10
2022-08-03T17:01:22.333Z,31.00
2022-08-03T17:04:02.564Z,31.20
2022-08-03T17:06:34.438Z,33.50
2022-08-03T17:09:03.215Z,31.10
2022-08-03T17:11:30.305Z,31.10
2022-08-03T17:14:03.469Z,31.10
2022-08-03T17:16:32.970Z,31.10
2022-08-03T17:19:04.187Z,31.00
2022-08-03T17:21:36.933Z,31.00
2022-08-03T17:24:12.515Z,32.00
2022-08-03T17:26:43.425Z,30.80
2022-08-03T17:29:16.093Z,30.80
2022-08-03T17:31:49.055Z,30.70
2022-08-03T17:34:17.731Z,30.70
2022-08-03T17:39:58.887Z,30.60
2022-08-03T17:42:30.094Z,30.50
2022-08-03T17:45:02.081Z,30.60
2022-08-03T17:47:41.906Z,30.50
2022-08-03T17:50:24.539Z,30.90
2022-08-03T17:52:58.214Z,30.40
2022-08-03T17:55:56.382Z,30.40
2022-08-03T17:58:19.905Z,30.30
2022-08-03T18:02:00.038Z,30.30
2022-08-03T18:04:03.146Z,30.60
2022-08-03T18:06:56.591Z,30.20
2022-08-03T18:10:04.729Z,30.20
2022-08-03T18:12:22.450Z,30.10
2022-08-03T18:14:57.368Z,30.00
2022-08-03T18:17:57.965Z,30.90
2022-08-03T18:20:31.324Z,30.40
2022-08-03T18:23:04.786Z,29.60
2022-08-03T18:25:45.490Z,30.00
2022-08-03T18:28:15.756Z,29.50
2022-08-03T18:30:54.689Z,29.50
2022-08-03T18:34:18.022Z,30.10
2022-08-03T18:38:47.174Z,29.20
2022-08-03T18:41:20.562Z,29.10
2022-08-03T18:44:08.541Z,29.20
2022-08-03T18:46:47.224Z,29.00
2022-08-03T18:49:21.058Z,28.80
2022-08-03T18:51:54.955Z,28.70
2022-08-03T18:54:45.791Z,28.50
2022-08-03T18:57:22.231Z,28.30
2022-08-03T19:00:05.353Z,28.20
2022-08-03T19:02:48.719Z,28.10
2022-08-03T19:05:20.327Z,29.40
2022-08-03T19:07:58.416Z,27.90
2022-08-03T19:10:31.472Z,28.40
2022-08-03T19:13:04.250Z,27.70
2022-08-03T19:18:22.407Z,29.30
2022-08-03T19:20:54.610Z,27.90
2022-08-03T19:23:25.015Z,27.30
2022-08-03T19:25:52.816Z,28.20
2022-08-03T19:28:30.048Z,26.90
2022-08-03T19:31:00.008Z,26.60
2022-08-03T19:33:56.077Z,26.50
2022-08-03T19:36:26.436Z,26.40
2022-08-03T19:38:54.931Z,26.30
2022-08-03T19:41:27.198Z,27.10
2022-08-03T19:44:01.045Z,26.10
2022-08-03T19:46:33.900Z,26.00
2022-08-03T19:49:02.938Z,26.00
2022-08-03T19:52:01.057Z,25.90
2022-08-03T19:54:29.512Z,27.30
2022-08-03T19:56:58.310Z,25.50
2022-08-03T20:01:53.635Z,25.50
2022-08-03T20:04:21.719Z,25.40
2022-08-03T20:06:52.098Z,25.20
2022-08-03T20:09:20.605Z,25.10
2022-08-03T20:11:48.351Z,25.50
2022-08-03T20:14:20.856Z,24.60
2022-08-03T20:19:22.117Z,24.70
2022-08-03T20:21:53.390Z,25.90
2022-08-03T20:24:26.430Z,24.60
2022-08-03T20:26:56.727Z,24.50
2022-08-03T20:29:42.791Z,24.50
2022-08-03T20:32:17.031Z,26.10
2022-08-03T20:34:44.375Z,24.40
2022-08-03T20:37:18.312Z,24.30
2022-08-03T20:39:45.224Z,24.50
2022-08-03T20:42:21.100Z,26.10
2022-08-03T20:45:06.070Z,25.00
2022-08-03T20:47:36.396Z,24.10
2022-08-03T20:50:09.612Z,24.10
2022-08-03T20:52:49.294Z,24.00
2022-08-03T20:55:48.175Z,24.00
2022-08-03T20:58:18.760Z,23.90
2022-08-03T21:00:47.669Z,23.90
2022-08-03T21:03:18.439Z,23.90
2022-08-03T21:05:51.756Z,23.80
2022-08-03T21:08:25.085Z,23.80
2022-08-03T21:10:53.535Z,23.70
2022-08-03T21:13:11.154Z,27.60
2022-08-03T21:13:27.194Z,23.70
2022-08-03T21:16:12.890Z,25.40
2022-08-03T21:18:44.825Z,23.60
2022-08-03T21:21:14.312Z,23.50
2022-08-03T21:23:48.668Z,23.40
2022-08-03T21:26:18.195Z,23.60
2022-08-03T21:28:46.861Z,23.20
2022-08-03T21:33:47.281Z,23.10
2022-08-03T21:36:14.445Z,23.10
2022-08-03T21:38:43.936Z,22.70
2022-08-03T21:43:41.812Z,22.70
2022-08-03T21:46:11.304Z,22.60
2022-08-03T21:48:39.614Z,22.50
2022-08-03T21:51:08.879Z,22.70
2022-08-03T21:54:02.476Z,23.10
2022-08-03T21:56:27.941Z,22.70
2022-08-03T21:58:56.758Z,22.70
2022-08-03T22:01:25.687Z,22.70
2022-08-03T22:03:54.433Z,22.60
2022-08-03T22:08:51.639Z,22.70
2022-08-03T22:11:18.701Z,23.10
2022-08-03T22:13:47.017Z,22.50
2022-08-03T22:16:14.940Z,24.10
2022-08-03T22:21:36.677Z,22.40
2022-08-03T22:24:05.575Z,22.40
2022-08-03T22:26:35.375Z,22.30
2022-08-03T22:29:07.164Z,22.20
2022-08-03T22:31:57.533Z,22.20
2022-08-03T22:34:26.805Z,22.20
2022-08-03T22:36:57.881Z,22.00
2022-08-03T22:39:28.640Z,22.00
2022-08-03T22:41:57.465Z,21.90
2022-08-03T22:44:26.269Z,21.80
2022-08-03T22:46:53.309Z,21.90
2022-08-03T22:49:20.753Z,21.90
2022-08-03T22:51:49.432Z,21.90
2022-08-03T22:54:17.493Z,21.90
2022-08-03T22:56:46.537Z,24.90
2022-08-03T22:59:41.378Z,21.90
2022-08-03T23:02:15.057Z,21.80
2022-08-03T23:04:51.131Z,21.80
2022-08-03T23:07:22.751Z,21.70
2022-08-03T23:09:50.130Z,21.70
2022-08-03T23:12:19.885Z,21.70
2022-08-03T23:14:52.832Z,21.60
2022-08-03T23:17:22.823Z,21.60
2022-08-03T23:19:52.429Z,22.80
2022-08-03T23:22:30.446Z,21.50
2022-08-03T23:24:59.167Z,21.50
2022-08-03T23:27:27.997Z,21.50
2022-08-03T23:29:57.391Z,21.40
2022-08-03T23:32:27.332Z,21.30
2022-08-03T23:35:14.994Z,21.30
2022-08-03T23:38:07.208Z,21.30
2022-08-03T23:40:30.884Z,21.30
2022-08-03T23:42:58.251Z,21.30
2022-08-03T23:45:27.914Z,21.30
2022-08-03T23:47:56.145Z,21.30
2022-08-03T23:50:23.860Z,21.40
2022-08-03T23:52:58.181Z,21.70
2022-08-03T23:55:46.958Z,21.30
2022-08-03T23:58:26.964Z,21.20
